Time;durP1;ratioP1;P1;durP2;ratioP2;P2;SDS_P1;SDS_P2;PMS_P1;PMS_P2;Temp;Humidity;BMP_temperature;BMP_pressure;BME280_temperature;BME280_humidity;BME280_pressure;Samples;Min_cycle;Max_cycle;Signal;HPM_P1;HPM_P2
2022/03/03 00:00:22;;;;;;;17.75;8.43;;;5.10;99.90;;;;;;5030293;28;20025;-32
2022/03/03 00:02:48;;;;;;;17.83;7.88;;;5.00;99.90;;;;;;5025697;28;20457;-33
2022/03/03 00:05:14;;;;;;;16.02;7.25;;;5.00;99.90;;;;;;5021450;28;20057;-33
2022/03/03 00:07:40;;;;;;;22.60;7.65;;;4.90;99.90;;;;;;5026602;28;20026;-32
2022/03/03 00:10:07;;;;;;;19.25;8.18;;;4.90;99.90;;;;;;5015492;28;20487;-35
2022/03/03 00:12:33;;;;;;;17.42;6.97;;;4.90;99.90;;;;;;5017724;28;20022;-32
2022/03/03 00:14:59;;;;;;;16.75;7.22;;;4.80;99.90;;;;;;5019374;28;20036;-34
2022/03/03 00:17:24;;;;;;;13.75;6.75;;;4.80;99.90;;;;;;5025077;28;20037;-46
2022/03/03 00:19:50;;;;;;;17.95;7.38;;;4.80;99.90;;;;;;5026579;28;20025;-34
2022/03/03 00:22:16;;;;;;;17.27;6.97;;;4.70;99.90;;;;;;5025745;28;20493;-37
2022/03/03 00:24:42;;;;;;;17.45;7.47;;;4.80;99.90;;;;;;5024850;28;20380;-35
2022/03/03 00:27:08;;;;;;;19.58;7.57;;;4.70;99.90;;;;;;5028800;28;20382;-44
2022/03/03 00:29:33;;;;;;;18.35;7.13;;;4.70;99.90;;;;;;5028772;28;20030;-32
2022/03/03 00:31:59;;;;;;;19.77;7.65;;;4.60;99.90;;;;;;5031728;28;20029;-32
2022/03/03 00:34:25;;;;;;;15.38;7.53;;;4.60;99.90;;;;;;5021261;28;20018;-36
2022/03/03 00:36:50;;;;;;;19.48;8.02;;;4.60;99.90;;;;;;5022572;28;20037;-34
2022/03/03 00:39:16;;;;;;;20.35;8.18;;;4.60;99.90;;;;;;5017692;28;20102;-34
2022/03/03 00:41:41;;;;;;;17.77;7.63;;;4.60;99.90;;;;;;5022645;28;20083;-35
2022/03/03 00:44:09;;;;;;;19.92;8.98;;;4.60;99.90;;;;;;5018559;28;20029;-33
2022/03/03 00:46:36;;;;;;;19.73;7.28;;;4.50;99.90;;;;;;5022230;28;20390;-32
2022/03/03 00:49:02;;;;;;;18.67;8.10;;;4.50;99.90;;;;;;5021322;28;20071;-35
2022/03/03 00:51:28;;;;;;;16.73;8.43;;;4.60;99.90;;;;;;5032296;28;20051;-32
2022/03/03 00:53:54;;;;;;;18.42;7.32;;;4.60;99.90;;;;;;5026902;28;20097;-34
2022/03/03 00:56:20;;;;;;;20.58;7.75;;;4.60;99.90;;;;;;5032069;28;20056;-34
2022/03/03 00:58:47;;;;;;;15.40;7.40;;;4.50;99.90;;;;;;5021129;28;20022;-31
2022/03/03 01:01:13;;;;;;;16.10;7.25;;;4.50;99.90;;;;;;5025529;28;20026;-35
2022/03/03 01:03:39;;;;;;;16.08;7.22;;;4.50;99.90;;;;;;5027452;28;20079;-34
2022/03/03 01:06:05;;;;;;;20.48;8.02;;;4.50;99.90;;;;;;5034483;28;20124;-34
2022/03/03 01:08:31;;;;;;;17.48;7.13;;;4.40;99.90;;;;;;5016222;28;20096;-36
2022/03/03 01:10:57;;;;;;;17.70;8.43;;;4.40;99.90;;;;;;5016169;28;20581;-32
2022/03/03 01:13:22;;;;;;;17.17;7.68;;;4.40;99.90;;;;;;5019680;28;20029;-41
2022/03/03 01:15:53;;;;;;;13.55;7.28;;;4.50;99.90;;;;;;5023068;28;20025;-31
2022/03/03 01:18:19;;;;;;;17.08;8.35;;;4.50;99.90;;;;;;5034015;28;20044;-32
2022/03/03 01:20:44;;;;;;;15.02;7.78;;;4.40;99.90;;;;;;5022926;28;20025;-34
2022/03/03 01:23:10;;;;;;;16.75;7.57;;;4.40;99.90;;;;;;5018218;28;20028;-31
2022/03/03 01:25:35;;;;;;;16.23;6.90;;;4.40;99.90;;;;;;5035438;28;20025;-30
2022/03/03 01:28:01;;;;;;;16.48;6.95;;;4.40;99.90;;;;;;5033273;28;20390;-33
2022/03/03 01:30:27;;;;;;;18.77;7.88;;;4.40;99.90;;;;;;5035139;28;20084;-34
2022/03/03 01:32:52;;;;;;;20.85;8.38;;;4.40;99.90;;;;;;5028030;28;20061;-32
2022/03/03 01:35:18;;;;;;;21.70;8.05;;;4.30;99.90;;;;;;5031930;28;20112;-31
2022/03/03 01:37:44;;;;;;;18.23;7.40;;;4.20;99.90;;;;;;5035415;28;20124;-30
2022/03/03 01:40:10;;;;;;;20.98;8.68;;;4.20;99.90;;;;;;5031552;28;20428;-34
2022/03/03 01:42:36;;;;;;;19.33;8.70;;;4.10;99.90;;;;;;5018821;28;20394;-34
2022/03/03 01:45:03;;;;;;;15.20;7.53;;;4.10;99.90;;;;;;5023386;28;20037;-32
2022/03/03 01:47:28;;;;;;;20.75;7.57;;;4.10;99.90;;;;;;5030931;28;20037;-33
2022/03/03 01:49:55;;;;;;;20.27;8.45;;;4.20;99.90;;;;;;5031961;28;20497;-33
2022/03/03 01:52:21;;;;;;;19.80;8.95;;;4.10;99.90;;;;;;5026677;28;20108;-30
2022/03/03 01:54:48;;;;;;;22.88;9.15;;;4.10;99.90;;;;;;5021806;28;20153;-33
2022/03/03 01:57:19;;;;;;;19.92;8.30;;;4.10;99.90;;;;;;5015853;28;20475;-39
2022/03/03 01:59:45;;;;;;;17.80;7.70;;;4.10;99.90;;;;;;5016404;28;20034;-48
2022/03/03 02:02:11;;;;;;;18.58;8.20;;;4.00;99.90;;;;;;5033135;28;20183;-31
2022/03/03 02:04:39;;;;;;;20.58;8.75;;;4.00;99.90;;;;;;5032481;28;20152;-32
2022/03/03 02:07:06;;;;;;;17.40;7.43;;;4.00;99.90;;;;;;5032803;28;20375;-32
2022/03/03 02:09:32;;;;;;;17.00;8.80;;;3.90;99.90;;;;;;5034290;28;20025;-31
2022/03/03 02:11:57;;;;;;;18.23;8.02;;;3.90;99.90;;;;;;5033742;28;20104;-30
2022/03/03 02:14:23;;;;;;;22.55;8.32;;;3.90;99.90;;;;;;5033171;28;20029;-41
2022/03/03 02:16:48;;;;;;;14.85;7.35;;;3.80;99.90;;;;;;5027206;28;20033;-31
2022/03/03 02:19:18;;;;;;;16.45;7.63;;;3.80;99.90;;;;;;5034086;28;20033;-33
2022/03/03 02:21:51;;;;;;;19.23;8.02;;;3.70;99.90;;;;;;5033948;28;20036;-34
2022/03/03 02:24:20;;;;;;;18.70;8.20;;;3.70;99.90;;;;;;5033767;28;20501;-30
2022/03/03 02:26:46;;;;;;;14.75;8.00;;;3.70;99.90;;;;;;5027384;28;20056;-31
2022/03/03 02:29:12;;;;;;;25.05;8.60;;;3.70;99.90;;;;;;5033364;28;20028;-35
2022/03/03 02:31:39;;;;;;;23.85;8.80;;;3.70;99.90;;;;;;5026503;28;20109;-34
2022/03/03 02:34:04;;;;;;;18.50;8.05;;;3.60;99.90;;;;;;5022491;28;20026;-31
2022/03/03 02:36:30;;;;;;;15.77;7.95;;;3.50;99.90;;;;;;5014496;28;20541;-37
2022/03/03 02:39:02;;;;;;;20.95;8.35;;;3.50;99.90;;;;;;5034059;28;20029;-35
2022/03/03 02:41:28;;;;;;;17.92;8.45;;;3.40;99.90;;;;;;5034134;28;20013;-34
2022/03/03 02:43:56;;;;;;;21.83;8.23;;;3.40;99.90;;;;;;5022246;28;20381;-30
2022/03/03 02:46:21;;;;;;;21.08;9.45;;;3.40;99.90;;;;;;5027713;28;20052;-31
2022/03/03 02:48:47;;;;;;;21.92;7.95;;;3.40;99.90;;;;;;5029388;28;20036;-35
2022/03/03 02:51:13;;;;;;;19.83;7.97;;;3.30;99.90;;;;;;5025019;28;20026;-41
2022/03/03 02:53:39;;;;;;;17.85;7.93;;;3.30;99.90;;;;;;5030149;28;20038;-31
2022/03/03 02:56:05;;;;;;;19.48;7.95;;;3.30;99.90;;;;;;5030897;28;20030;-33
2022/03/03 02:58:31;;;;;;;17.88;8.60;;;3.30;99.90;;;;;;5032212;28;20033;-30
2022/03/03 03:00:57;;;;;;;21.35;8.70;;;3.30;99.90;;;;;;5016030;28;20034;-30
2022/03/03 03:03:23;;;;;;;17.85;7.35;;;3.30;99.90;;;;;;5020211;28;20060;-31
2022/03/03 03:05:49;;;;;;;18.50;8.10;;;3.30;99.90;;;;;;5025213;28;20049;-34
2022/03/03 03:08:15;;;;;;;21.92;8.23;;;3.30;99.90;;;;;;5020491;28;20168;-31
2022/03/03 03:10:41;;;;;;;23.67;8.65;;;3.20;99.90;;;;;;5028056;28;20092;-31
2022/03/03 03:13:08;;;;;;;18.27;8.20;;;3.20;99.90;;;;;;5024327;28;20021;-34
2022/03/03 03:15:35;;;;;;;18.00;8.38;;;3.20;99.90;;;;;;5021451;28;20040;-31
2022/03/03 03:18:09;;;;;;;19.02;8.27;;;3.20;99.90;;;;;;5015375;28;20091;-32
2022/03/03 03:20:36;;;;;;;22.60;8.98;;;3.20;99.90;;;;;;5013724;28;20063;-30
2022/03/03 03:23:01;;;;;;;19.40;7.50;;;3.20;99.90;;;;;;5025542;28;20033;-35
2022/03/03 03:25:27;;;;;;;19.77;8.65;;;3.20;99.90;;;;;;5021157;28;20073;-33
2022/03/03 03:27:52;;;;;;;19.85;8.73;;;3.10;99.90;;;;;;5014591;28;20026;-31
2022/03/03 03:30:18;;;;;;;16.17;8.02;;;3.10;99.90;;;;;;5013434;28;20034;-32
2022/03/03 03:32:44;;;;;;;22.55;8.25;;;3.10;99.90;;;;;;5013548;28;20036;-30
2022/03/03 03:35:10;;;;;;;18.08;8.85;;;3.00;99.90;;;;;;5017516;28;20034;-30
2022/03/03 03:37:39;;;;;;;22.30;9.25;;;3.00;99.90;;;;;;5029773;28;20236;-30
2022/03/03 03:40:07;;;;;;;19.48;8.50;;;3.00;99.90;;;;;;5032638;28;20053;-44
2022/03/03 03:42:33;;;;;;;18.48;8.05;;;3.00;99.90;;;;;;5028528;28;20021;-30
2022/03/03 03:44:58;;;;;;;19.05;8.80;;;3.00;99.90;;;;;;5015265;28;20037;-31
2022/03/03 03:47:24;;;;;;;22.45;8.40;;;2.90;99.90;;;;;;5016302;28;20022;-31
2022/03/03 03:49:49;;;;;;;23.25;9.40;;;2.90;99.90;;;;;;5032623;28;20122;-31
2022/03/03 03:52:15;;;;;;;18.95;8.57;;;2.90;99.90;;;;;;5021750;28;20072;-31
2022/03/03 03:54:40;;;;;;;18.55;8.32;;;2.80;99.90;;;;;;5026337;28;20029;-31
2022/03/03 03:57:06;;;;;;;18.17;8.25;;;2.80;99.90;;;;;;5026098;28;20018;-35
2022/03/03 03:59:32;;;;;;;18.83;8.98;;;2.80;99.90;;;;;;5017269;28;20038;-30
2022/03/03 04:01:57;;;;;;;12.52;7.18;;;2.70;99.90;;;;;;5018017;28;20036;-37
2022/03/03 04:04:23;;;;;;;17.77;8.60;;;2.70;99.90;;;;;;5020950;28;20030;-34
2022/03/03 04:06:49;;;;;;;22.85;9.13;;;2.70;99.90;;;;;;5012866;28;20108;-31
2022/03/03 04:09:14;;;;;;;19.25;8.85;;;2.70;99.90;;;;;;5019602;28;20080;-34
2022/03/03 04:11:40;;;;;;;25.75;8.55;;;2.70;99.90;;;;;;5022368;28;20398;-32
2022/03/03 04:14:05;;;;;;;20.90;7.25;;;2.70;99.90;;;;;;5024048;28;20025;-34
2022/03/03 04:16:31;;;;;;;19.10;7.32;;;2.70;99.90;;;;;;5026844;28;20024;-32
2022/03/03 04:18:58;;;;;;;17.30;7.85;;;2.70;99.90;;;;;;5013508;28;20026;-33
2022/03/03 04:21:23;;;;;;;19.75;8.15;;;2.70;99.90;;;;;;5032217;28;20045;-34
2022/03/03 04:23:49;;;;;;;19.85;7.93;;;2.70;99.90;;;;;;5024672;28;20060;-46
2022/03/03 04:26:15;;;;;;;15.10;7.97;;;2.70;99.90;;;;;;5022483;28;20117;-36
2022/03/03 04:28:40;;;;;;;14.85;8.20;;;2.70;99.90;;;;;;5028970;28;20490;-33
2022/03/03 04:31:06;;;;;;;20.85;8.77;;;2.70;99.90;;;;;;5015622;28;20025;-35
2022/03/03 04:33:32;;;;;;;18.35;8.50;;;2.60;99.90;;;;;;5028756;28;20018;-37
2022/03/03 04:35:57;;;;;;;18.83;8.13;;;2.60;99.90;;;;;;5015956;28;20083;-34
2022/03/03 04:38:23;;;;;;;23.48;8.82;;;2.50;99.90;;;;;;5018532;28;20025;-33
2022/03/03 04:40:49;;;;;;;18.70;8.27;;;2.50;99.90;;;;;;5035749;28;20091;-34
2022/03/03 04:43:14;;;;;;;19.90;8.95;;;2.40;99.90;;;;;;5026736;28;20098;-34
2022/03/03 04:45:40;;;;;;;21.90;9.02;;;2.40;99.90;;;;;;5032824;28;20037;-31
2022/03/03 04:48:06;;;;;;;21.20;7.32;;;2.50;99.90;;;;;;5017917;28;20022;-31
2022/03/03 04:50:32;;;;;;;22.63;8.00;;;2.40;99.90;;;;;;5022421;28;20026;-31
2022/03/03 04:52:59;;;;;;;18.25;7.75;;;2.40;99.90;;;;;;5030361;28;20053;-30
2022/03/03 04:55:24;;;;;;;24.17;8.80;;;2.50;99.90;;;;;;5020344;28;20038;-32
2022/03/03 04:57:50;;;;;;;19.55;8.55;;;2.50;99.90;;;;;;5033953;28;20036;-30
2022/03/03 05:00:17;;;;;;;16.10;7.82;;;2.60;99.90;;;;;;5026176;28;20040;-33
2022/03/03 05:02:43;;;;;;;19.85;7.70;;;2.60;99.90;;;;;;5029690;28;20029;-33
2022/03/03 05:05:09;;;;;;;20.85;8.55;;;2.70;99.90;;;;;;5034293;28;20046;-30
2022/03/03 05:07:35;;;;;;;21.58;9.13;;;2.70;99.90;;;;;;5035184;28;20017;-53
2022/03/03 05:10:00;;;;;;;19.02;7.95;;;2.60;99.90;;;;;;5033519;28;20017;-32
2022/03/03 05:12:27;;;;;;;21.20;9.32;;;2.50;99.90;;;;;;5016603;28;20025;-31
2022/03/03 05:14:52;;;;;;;17.50;8.15;;;2.50;99.90;;;;;;5032208;28;20065;-32
2022/03/03 05:17:18;;;;;;;15.35;7.68;;;2.40;99.90;;;;;;5035388;28;20069;-31
2022/03/03 05:19:44;;;;;;;18.52;8.63;;;2.40;99.90;;;;;;5019210;28;20535;-33
2022/03/03 05:22:10;;;;;;;25.90;8.65;;;2.40;99.90;;;;;;5022169;28;20033;-33
2022/03/03 05:24:38;;;;;;;25.13;9.63;;;2.40;99.90;;;;;;5018092;28;20084;-35
2022/03/03 05:27:04;;;;;;;12.63;5.97;;;2.40;99.90;;;;;;5020127;28;20466;-32
2022/03/03 05:29:30;;;;;;;18.73;8.65;;;2.30;99.90;;;;;;5017798;28;20033;-33
2022/03/03 05:31:58;;;;;;;22.50;9.00;;;2.30;99.90;;;;;;5020812;28;20033;-34
2022/03/03 05:34:25;;;;;;;16.13;7.80;;;2.20;99.90;;;;;;5017787;28;20033;-31
2022/03/03 05:36:50;;;;;;;21.75;8.73;;;2.20;99.90;;;;;;5033807;28;20033;-30
2022/03/03 05:39:17;;;;;;;22.17;8.63;;;2.20;99.90;;;;;;5020923;28;20080;-35
2022/03/03 05:41:43;;;;;;;22.42;9.38;;;2.20;99.90;;;;;;5019508;28;20103;-31
2022/03/03 05:44:12;;;;;;;17.38;8.75;;;2.20;99.90;;;;;;5033006;28;20061;-33
2022/03/03 05:46:40;;;;;;;23.58;8.65;;;2.20;99.90;;;;;;5030961;28;20061;-32
2022/03/03 05:49:07;;;;;;;18.60;9.20;;;2.10;99.90;;;;;;5033384;28;20029;-33
2022/03/03 05:51:32;;;;;;;17.50;8.60;;;2.10;99.90;;;;;;5035090;28;20026;-32
2022/03/03 05:53:58;;;;;;;20.48;8.77;;;2.10;99.90;;;;;;5024592;28;20451;-34
2022/03/03 05:56:24;;;;;;;19.83;8.07;;;2.20;99.90;;;;;;5025901;28;20026;-41
2022/03/03 05:58:51;;;;;;;17.25;9.10;;;2.30;99.90;;;;;;5017590;28;20455;-31
2022/03/03 06:01:18;;;;;;;16.13;6.80;;;2.50;99.90;;;;;;5018042;28;20036;-31
2022/03/03 06:03:47;;;;;;;17.88;7.47;;;2.60;99.90;;;;;;5029211;28;20056;-35
2022/03/03 06:06:25;;;;;;;15.85;7.78;;;2.70;99.90;;;;;;5021825;28;20033;-31
2022/03/03 06:08:55;;;;;;;21.10;8.50;;;2.70;99.90;;;;;;5015003;28;20026;-32
2022/03/03 06:11:22;;;;;;;19.65;8.40;;;2.70;99.90;;;;;;5015182;28;20025;-33
2022/03/03 06:13:51;;;;;;;18.65;7.93;;;2.70;99.90;;;;;;5017391;28;20030;-30
2022/03/03 06:16:20;;;;;;;17.02;7.68;;;2.70;99.90;;;;;;5024877;28;20033;-33
2022/03/03 06:18:48;;;;;;;21.25;7.82;;;2.80;99.90;;;;;;5018087;28;20029;-32
2022/03/03 06:21:17;;;;;;;18.77;7.95;;;2.80;99.90;;;;;;5034586;28;20059;-32
2022/03/03 06:23:43;;;;;;;23.60;8.15;;;2.80;99.90;;;;;;5018079;28;20088;-31
2022/03/03 06:26:16;;;;;;;17.38;8.45;;;2.80;99.90;;;;;;5020450;28;20025;-31
2022/03/03 06:28:41;;;;;;;20.27;8.90;;;2.80;99.90;;;;;;5032347;28;20500;-33
2022/03/03 06:31:07;;;;;;;16.80;7.43;;;2.80;99.90;;;;;;5020370;28;20096;-30
2022/03/03 06:33:35;;;;;;;23.90;9.25;;;2.80;99.90;;;;;;5021292;28;20568;-32
2022/03/03 06:36:00;;;;;;;18.42;8.07;;;2.80;99.90;;;;;;5027535;28;20474;-34
2022/03/03 06:38:26;;;;;;;18.55;8.32;;;2.80;99.90;;;;;;5022855;28;20029;-34
2022/03/03 06:40:54;;;;;;;23.08;9.60;;;2.70;99.90;;;;;;5030723;28;20025;-31
2022/03/03 06:43:19;;;;;;;21.38;8.45;;;2.60;99.90;;;;;;5025994;28;20109;-31
2022/03/03 06:45:45;;;;;;;20.55;8.35;;;2.50;99.90;;;;;;5021833;28;20549;-32
2022/03/03 06:48:11;;;;;;;18.92;8.45;;;2.60;99.90;;;;;;5031610;28;20030;-31
2022/03/03 06:50:39;;;;;;;20.90;8.02;;;2.70;99.90;;;;;;5023156;28;20037;-34
2022/03/03 06:53:07;;;;;;;17.88;8.27;;;2.70;99.90;;;;;;5024920;28;20018;-32
2022/03/03 06:55:33;;;;;;;14.93;7.50;;;2.90;99.90;;;;;;5024882;28;20033;-35
2022/03/03 06:57:59;;;;;;;15.38;7.45;;;3.10;99.90;;;;;;5020408;28;20292;-33
2022/03/03 07:00:28;;;;;;;21.55;8.70;;;3.20;99.90;;;;;;5028918;28;20469;-34
2022/03/03 07:02:53;;;;;;;18.05;8.45;;;3.30;99.90;;;;;;5030499;28;20026;-33
2022/03/03 07:05:21;;;;;;;15.13;7.45;;;3.30;99.90;;;;;;5031387;28;20047;-30
2022/03/03 07:07:48;;;;;;;10.48;5.60;;;3.40;99.90;;;;;;5026565;28;20036;-37
2022/03/03 07:10:19;;;;;;;17.85;9.43;;;3.40;99.90;;;;;;5033916;28;20021;-34
2022/03/03 07:12:45;;;;;;;21.25;8.80;;;3.40;99.90;;;;;;5023434;28;20101;-32
2022/03/03 07:15:10;;;;;;;23.70;9.63;;;3.30;99.90;;;;;;5026420;28;20120;-33
2022/03/03 07:17:50;;;;;;;18.95;8.95;;;3.30;99.90;;;;;;5027033;28;20025;-30
2022/03/03 07:21:14;;;;;;;18.02;8.48;;;3.30;99.90;;;;;;5031380;28;20041;-36
2022/03/03 07:23:46;;;;;;;20.02;8.90;;;3.40;99.90;;;;;;5005384;28;20085;-31
2022/03/03 07:26:15;;;;;;;21.50;9.43;;;3.40;99.90;;;;;;5013672;28;20042;-32
2022/03/03 07:28:46;;;;;;;17.88;8.00;;;3.40;99.90;;;;;;5019987;28;20108;-35
2022/03/03 07:31:16;;;;;;;27.83;8.93;;;3.40;99.90;;;;;;5020171;28;20025;-32
2022/03/03 07:33:55;;;;;;;19.88;9.38;;;3.50;99.90;;;;;;5022349;28;20040;-34
2022/03/03 07:36:31;;;;;;;22.65;8.18;;;3.50;99.90;;;;;;5023254;28;20036;-31
2022/03/03 07:39:10;;;;;;;16.50;7.55;;;3.50;99.90;;;;;;5013665;28;20425;-36
2022/03/03 07:41:35;;;;;;;19.45;8.43;;;3.60;99.90;;;;;;5030399;28;20102;-32
2022/03/03 07:44:02;;;;;;;23.48;8.93;;;3.70;99.90;;;;;;5028669;28;20057;-32
2022/03/03 07:46:28;;;;;;;19.98;8.88;;;3.80;99.90;;;;;;5031557;28;20033;-33
2022/03/03 07:48:55;;;;;;;21.98;8.85;;;3.90;99.90;;;;;;5031286;28;20515;-37
2022/03/03 07:51:21;;;;;;;20.95;8.70;;;4.00;99.90;;;;;;5032386;28;20076;-34
2022/03/03 07:53:48;;;;;;;20.50;8.68;;;4.10;99.90;;;;;;5031824;28;20033;-31
2022/03/03 07:56:26;;;;;;;16.95;8.98;;;4.10;99.90;;;;;;5032525;28;20033;-34
2022/03/03 07:58:59;;;;;;;14.70;7.70;;;4.20;99.90;;;;;;5032120;28;20174;-33
2022/03/03 08:01:25;;;;;;;17.33;8.63;;;4.30;99.90;;;;;;5030935;28;20048;-34
2022/03/03 08:03:52;;;;;;;20.10;9.05;;;4.50;99.90;;;;;;5032132;28;20065;-34
2022/03/03 08:06:19;;;;;;;18.65;8.40;;;4.60;99.90;;;;;;5030909;28;20045;-33
2022/03/03 08:08:46;;;;;;;20.48;9.30;;;4.70;99.90;;;;;;5032575;28;20026;-35
2022/03/03 08:11:11;;;;;;;24.30;8.65;;;4.90;99.90;;;;;;5032564;28;20513;-30
2022/03/03 08:13:38;;;;;;;17.73;8.05;;;5.10;99.90;;;;;;5018802;28;20022;-35
2022/03/03 08:16:04;;;;;;;17.27;7.53;;;5.30;99.90;;;;;;5027065;28;20116;-40
2022/03/03 08:18:38;;;;;;;15.80;7.72;;;5.40;99.90;;;;;;5022900;28;20022;-33
2022/03/03 08:21:06;;;;;;;16.05;7.75;;;5.50;99.90;;;;;;5012895;28;20026;-33
2022/03/03 08:23:32;;;;;;;9.90;5.57;;;5.60;99.90;;;;;;5013149;28;20112;-35
2022/03/03 08:25:59;;;;;;;17.95;8.40;;;5.70;99.90;;;;;;5016116;28;20056;-34
2022/03/03 08:28:25;;;;;;;16.67;7.72;;;5.80;99.90;;;;;;5027221;28;20025;-31
2022/03/03 08:30:57;;;;;;;19.65;8.98;;;5.80;99.90;;;;;;5029044;28;20078;-34
2022/03/03 08:33:49;;;;;;;24.90;7.80;;;5.90;99.90;;;;;;5030910;28;20022;-43
2022/03/03 08:36:28;;;;;;;15.27;7.13;;;6.20;99.30;;;;;;5028896;28;20461;-34
2022/03/03 08:39:01;;;;;;;16.02;8.00;;;6.30;99.40;;;;;;5013989;28;20026;-34
2022/03/03 08:41:31;;;;;;;20.27;7.75;;;6.40;99.20;;;;;;5029524;28;20033;-35
2022/03/03 08:44:01;;;;;;;25.42;9.80;;;6.50;98.90;;;;;;5018001;28;20021;-36
2022/03/03 08:46:32;;;;;;;15.45;7.95;;;6.70;98.80;;;;;;5016696;28;20109;-31
2022/03/03 08:49:00;;;;;;;16.83;8.68;;;6.80;98.70;;;;;;5023429;28;20497;-33
2022/03/03 08:51:26;;;;;;;;;;;6.90;98.20;;;;;;5021387;28;20042;-43
2022/03/03 08:53:51;;;;;;;15.57;7.90;;;7.00;98.20;;;;;;5027260;28;19932;-32
2022/03/03 08:56:17;;;;;;;16.98;7.75;;;7.10;97.80;;;;;;5016071;28;20029;-34
2022/03/03 08:58:44;;;;;;;15.95;8.23;;;7.20;97.90;;;;;;5027709;28;20041;-38
2022/03/03 09:01:10;;;;;;;15.02;7.00;;;7.30;97.30;;;;;;5025562;28;20021;-33
2022/03/03 09:03:35;;;;;;;17.85;8.18;;;7.30;97.60;;;;;;5020891;28;20030;-32
2022/03/03 09:06:01;;;;;;;17.08;8.05;;;7.40;97.30;;;;;;5016439;28;20049;-31
2022/03/03 09:08:27;;;;;;;18.17;8.45;;;7.60;96.90;;;;;;5023980;28;20096;-33
2022/03/03 09:10:52;;;;;;;17.63;7.90;;;7.60;96.80;;;;;;5020277;28;20101;-33
2022/03/03 09:13:18;;;;;;;21.90;8.23;;;7.80;96.70;;;;;;5024224;28;20052;-32
2022/03/03 09:15:44;;;;;;;17.33;8.30;;;7.90;96.10;;;;;;5015531;28;20113;-36
2022/03/03 09:18:10;;;;;;;17.52;9.05;;;8.00;96.30;;;;;;5012389;28;20106;-33
2022/03/03 09:20:35;;;;;;;18.27;8.75;;;8.10;96.70;;;;;;5027686;28;20063;-35
2022/03/03 09:23:02;;;;;;;18.85;8.05;;;8.20;95.90;;;;;;5030198;28;20017;-38
2022/03/03 09:25:28;;;;;;;14.27;7.97;;;8.30;95.40;;;;;;5024797;28;20630;-32
2022/03/03 09:27:55;;;;;;;19.17;7.47;;;8.40;95.50;;;;;;5034173;28;20025;-32
2022/03/03 09:30:21;;;;;;;16.63;8.75;;;8.50;95.50;;;;;;5019562;28;20021;-36
2022/03/03 09:32:47;;;;;;;18.40;7.63;;;8.50;95.70;;;;;;5019939;28;20550;-32
2022/03/03 09:35:13;;;;;;;14.35;8.05;;;8.70;95.60;;;;;;5023358;28;20398;-46
2022/03/03 09:37:39;;;;;;;20.00;7.97;;;8.80;95.10;;;;;;5025735;28;20026;-31
2022/03/03 09:40:06;;;;;;;15.20;7.43;;;8.80;94.50;;;;;;5015780;28;20022;-34
2022/03/03 09:42:34;;;;;;;14.40;6.77;;;8.90;94.30;;;;;;5020892;28;20021;-31
2022/03/03 09:45:05;;;;;;;14.80;8.00;;;8.90;94.60;;;;;;5024379;28;20059;-32
2022/03/03 09:47:33;;;;;;;20.92;8.35;;;9.00;94.60;;;;;;5016605;28;20034;-33
2022/03/03 09:49:59;;;;;;;16.27;8.02;;;9.20;94.70;;;;;;5015377;28;20030;-33
2022/03/03 09:52:25;;;;;;;16.40;7.55;;;9.30;94.30;;;;;;5032733;28;20355;-35
2022/03/03 09:54:54;;;;;;;16.55;8.63;;;9.30;94.20;;;;;;5033482;28;20032;-34
2022/03/03 09:57:20;;;;;;;18.55;8.27;;;9.50;94.60;;;;;;5033127;28;20037;-31
2022/03/03 09:59:46;;;;;;;18.77;7.90;;;9.50;95.20;;;;;;5028297;28;20029;-34
2022/03/03 10:02:13;;;;;;;16.55;8.05;;;9.70;93.60;;;;;;5029768;28;20076;-34
2022/03/03 10:04:39;;;;;;;14.20;7.30;;;9.70;93.70;;;;;;5034096;28;20040;-32
2022/03/03 10:07:07;;;;;;;12.55;7.28;;;9.90;93.60;;;;;;5030601;28;20037;-35
2022/03/03 10:09:59;;;;;;;10.73;6.15;;;10.00;92.70;;;;;;5016012;28;20116;-34
2022/03/03 10:12:26;;;;;;;19.15;7.82;;;10.10;92.70;;;;;;5031272;28;20032;-37
2022/03/03 10:14:57;;;;;;;17.80;7.97;;;10.30;92.40;;;;;;5020878;28;20478;-32
2022/03/03 10:17:37;;;;;;;18.23;7.43;;;10.30;92.10;;;;;;5022025;28;20018;-31
2022/03/03 10:20:04;;;;;;;21.25;7.22;;;10.40;92.40;;;;;;5025630;28;20394;-36
2022/03/03 10:22:41;;;;;;;14.10;7.25;;;10.50;92.40;;;;;;5031329;28;20446;-34
2022/03/03 10:25:08;;;;;;;16.63;7.43;;;10.60;92.60;;;;;;5028158;28;20022;-33
2022/03/03 10:27:34;;;;;;;19.58;7.93;;;10.70;92.20;;;;;;5018779;28;20467;-32
2022/03/03 10:30:01;;;;;;;13.77;7.43;;;10.80;92.20;;;;;;5026808;28;20108;-34
2022/03/03 10:32:27;;;;;;;14.60;7.07;;;10.90;92.30;;;;;;5031080;28;20478;-35
2022/03/03 10:34:56;;;;;;;17.13;8.02;;;11.00;92.30;;;;;;5027144;28;20100;-34
2022/03/03 10:37:23;;;;;;;13.65;7.30;;;11.10;92.00;;;;;;5015842;28;20030;-35
2022/03/03 10:39:59;;;;;;;13.80;8.13;;;11.20;92.10;;;;;;5014511;28;20026;-32
2022/03/03 10:42:26;;;;;;;16.10;7.93;;;11.20;92.50;;;;;;5017928;28;20034;-33
2022/03/03 10:45:08;;;;;;;13.07;6.65;;;11.10;92.90;;;;;;5023067;28;20377;-35
2022/03/03 10:47:34;;;;;;;22.45;8.27;;;11.20;92.10;;;;;;5032029;28;20028;-35
2022/03/03 10:50:01;;;;;;;15.02;6.53;;;11.30;91.60;;;;;;5020979;28;20025;-45
2022/03/03 10:52:29;;;;;;;17.35;8.05;;;11.20;92.20;;;;;;5019594;28;20026;-32
2022/03/03 10:55:05;;;;;;;11.80;6.88;;;11.30;91.70;;;;;;5027140;28;20025;-36
2022/03/03 10:57:44;;;;;;;13.57;6.68;;;11.40;91.50;;;;;;5024987;28;20053;-31
2022/03/03 11:00:19;;;;;;;13.85;6.85;;;11.40;92.00;;;;;;5015371;28;20017;-34
2022/03/03 11:02:47;;;;;;;18.55;7.13;;;11.40;92.10;;;;;;5016117;28;20025;-31
2022/03/03 11:05:13;;;;;;;;;;;11.50;91.60;;;;;;5020523;28;20034;-34
2022/03/03 11:07:41;;;;;;;9.95;6.53;;;11.60;91.30;;;;;;5016789;28;19959;-39
2022/03/03 11:10:08;;;;;;;9.43;6.13;;;11.60;91.30;;;;;;5020680;28;20374;-31
2022/03/03 11:12:34;;;;;;;13.18;6.65;;;11.60;91.80;;;;;;5026750;28;20536;-33
2022/03/03 11:15:00;;;;;;;13.65;6.20;;;11.80;90.80;;;;;;5015469;28;20109;-31
2022/03/03 11:17:26;;;;;;;14.23;7.07;;;12.00;90.60;;;;;;5015949;28;20109;-37
2022/03/03 11:19:52;;;;;;;11.02;6.15;;;12.00;90.20;;;;;;5013674;28;20372;-34
2022/03/03 11:22:18;;;;;;;17.02;6.55;;;11.90;90.40;;;;;;5013825;28;20506;-34
2022/03/03 11:24:45;;;;;;;12.30;6.72;;;11.90;91.10;;;;;;5013541;28;20026;-38
2022/03/03 11:27:11;;;;;;;31.08;8.70;;;12.00;90.10;;;;;;5015235;28;20025;-31
2022/03/03 11:29:38;;;;;;;11.73;6.18;;;12.00;91.60;;;;;;5033403;28;20529;-37
2022/03/03 11:32:17;;;;;;;13.20;6.38;;;12.10;91.50;;;;;;5033441;28;20032;-34
2022/03/03 11:34:45;;;;;;;10.30;6.03;;;12.10;90.60;;;;;;5033115;28;20029;-34
2022/03/03 11:37:20;;;;;;;10.43;6.25;;;12.20;89.70;;;;;;5030093;28;20022;-32
2022/03/03 11:39:47;;;;;;;12.30;6.22;;;12.40;89.50;;;;;;5013616;28;20391;-34
2022/03/03 11:42:22;;;;;;;13.75;6.57;;;12.50;89.00;;;;;;5014925;28;20072;-34
2022/03/03 11:44:49;;;;;;;12.68;5.80;;;12.40;88.10;;;;;;5032874;28;20048;-36
2022/03/03 11:47:29;;;;;;;13.07;6.65;;;12.30;90.60;;;;;;5032305;28;20105;-38
2022/03/03 11:50:04;;;;;;;10.63;5.65;;;12.40;88.90;;;;;;5032875;28;20034;-39
2022/03/03 11:52:29;;;;;;;10.13;5.88;;;12.50;87.10;;;;;;5032889;28;20017;-42
2022/03/03 11:55:00;;;;;;;10.73;6.72;;;12.50;85.90;;;;;;5023088;28;20076;-36
2022/03/03 11:57:32;;;;;;;9.68;6.70;;;12.70;88.30;;;;;;5012978;28;20030;-35
2022/03/03 12:00:05;;;;;;;13.73;6.45;;;12.90;89.30;;;;;;5012977;28;20026;-32
2022/03/03 12:02:32;;;;;;;13.30;6.88;;;12.90;90.40;;;;;;5012705;28;20121;-38
2022/03/03 12:05:32;;;;;;;9.07;4.73;;;13.10;87.00;;;;;;5015902;28;20528;-32
2022/03/03 12:08:22;;;;;;;10.82;6.15;;;13.00;84.00;;;;;;5012863;28;20133;-31
2022/03/03 12:11:02;;;;;;;10.90;6.60;;;12.90;85.90;;;;;;5012811;28;20113;-35
2022/03/03 12:13:33;;;;;;;11.32;6.10;;;12.90;86.10;;;;;;5013279;28;20033;-40
2022/03/03 12:16:24;;;;;;;11.07;6.55;;;12.80;86.70;;;;;;5019794;28;20057;-37
2022/03/03 12:19:05;;;;;;;9.65;5.50;;;12.90;86.20;;;;;;5032692;28;20025;-34
2022/03/03 12:21:41;;;;;;;11.43;6.18;;;13.00;86.90;;;;;;5032919;28;20234;-32
2022/03/03 12:24:13;;;;;;;10.45;6.18;;;13.20;87.00;;;;;;5030683;28;20455;-34
2022/03/03 12:26:59;;;;;;;11.10;6.50;;;13.40;84.30;;;;;;5014272;28;20069;-34
2022/03/03 12:29:52;;;;;;;8.20;6.00;;;13.60;84.60;;;;;;5021148;28;20360;-38
2022/03/03 12:32:39;;;;;;;12.57;6.68;;;13.70;81.70;;;;;;5013089;28;20490;-33
2022/03/03 12:35:18;;;;;;;13.10;6.45;;;13.70;83.40;;;;;;5021800;28;20064;-35
2022/03/03 12:37:46;;;;;;;11.50;5.95;;;13.70;85.70;;;;;;5032489;28;20037;-36
2022/03/03 12:40:15;;;;;;;9.65;6.13;;;13.70;83.70;;;;;;5031563;28;20025;-33
2022/03/03 12:42:43;;;;;;;10.50;6.28;;;13.70;83.60;;;;;;5032383;28;20033;-32
2022/03/03 12:45:14;;;;;;;13.40;6.55;;;13.80;83.60;;;;;;5030630;28;20072;-40
2022/03/03 12:47:46;;;;;;;9.57;6.05;;;13.90;82.80;;;;;;5032328;28;20028;-34
2022/03/03 12:50:26;;;;;;;12.75;6.28;;;14.00;82.20;;;;;;5032432;28;20017;-33